Time;durP1;ratioP1;P1;durP2;ratioP2;P2;SDS_P1;SDS_P2;PMS_P1;PMS_P2;Temp;Humidity;BMP_temperature;BMP_pressure;BME280_temperature;BME280_humidity;BME280_pressure;Samples;Min_cycle;Max_cycle;Signal;HPM_P1;HPM_P2
2021/12/07 00:01:47;;;;;;;29.55;19.10;;;;;;;7.67;100.00;99863.87;1771992;81;21320;-82
2021/12/07 00:04:53;;;;;;;42.75;21.68;;;;;;;7.69;100.00;99878.16;1772025;81;21256;-81
2021/12/07 00:07:58;;;;;;;33.98;18.85;;;;;;;7.72;100.00;99886.52;1771037;81;21355;-80
2021/12/07 00:11:03;;;;;;;33.83;19.20;;;;;;;7.74;100.00;99879.02;1779884;80;21318;-82
2021/12/07 00:14:14;;;;;;;28.20;16.90;;;;;;;7.75;100.00;99870.67;1785881;80;21188;-81
2021/12/07 00:17:19;;;;;;;27.80;15.93;;;;;;;7.74;100.00;99878.50;1785096;80;21331;-82
2021/12/07 00:20:26;;;;;;;28.42;17.27;;;;;;;7.74;100.00;99883.95;1784141;80;21300;-82
2021/12/07 00:23:32;;;;;;;32.60;19.07;;;;;;;7.76;100.00;99891.42;1785776;80;21279;-83
2021/12/07 00:26:39;;;;;;;34.92;17.37;;;;;;;7.77;100.00;99882.27;1785613;80;21279;-84
2021/12/07 00:29:44;;;;;;;32.70;19.55;;;;;;;7.76;100.00;99864.20;1785853;80;21157;-83
2021/12/07 00:33:06;;;;;;;41.00;20.52;;;;;;;7.77;100.00;99864.56;1785839;80;21319;-83
2021/12/07 00:35:59;;;;;;;34.50;17.85;;;;;;;7.77;100.00;99850.95;1785873;80;21316;-83
2021/12/07 00:39:04;;;;;;;36.45;18.95;;;;;;;7.76;100.00;99838.33;1785785;80;21359;-82
2021/12/07 00:42:09;;;;;;;28.27;16.25;;;;;;;7.78;100.00;99839.55;1785054;80;21343;-82
2021/12/07 00:45:17;;;;;;;28.50;16.07;;;;;;;7.79;100.00;99838.52;1785572;80;21177;-81
2021/12/07 00:48:24;;;;;;;30.20;16.52;;;;;;;7.80;100.00;99847.87;1784906;80;21335;-82
2021/12/07 00:51:29;;;;;;;30.25;15.93;;;;;;;7.82;100.00;99832.74;1785656;80;21287;-83
2021/12/07 00:54:34;;;;;;;30.70;15.83;;;;;;;7.82;100.00;99828.14;1785792;80;21295;-83
2021/12/07 00:57:40;;;;;;;26.00;14.68;;;;;;;7.84;100.00;99834.77;1785799;80;21746;-83
2021/12/07 01:00:46;;;;;;;28.35;14.85;;;;;;;7.84;100.00;99826.09;1785942;80;21148;-83
2021/12/07 01:03:50;;;;;;;25.27;14.73;;;;;;;7.86;100.00;99821.34;1785963;80;21212;-83
2021/12/07 01:26:50;;;;;;;21.68;12.95;;;;;;;7.94;100.00;99790.00;1746305;82;21318;-83
2021/12/07 01:30:07;;;;;;;23.07;13.90;;;;;;;7.99;100.00;99787.27;1746677;82;21816;-82
2021/12/07 01:36:42;;;;;;;23.80;14.98;;;;;;;8.01;100.00;99795.63;1746702;82;21137;-83
2021/12/07 01:53:00;;;;;;;30.95;15.90;;;;;;;8.08;100.00;99810.75;1746763;82;21831;-83
2021/12/07 01:59:33;;;;;;;30.27;15.28;;;;;;;8.05;100.00;99796.14;1745519;82;21159;-84
2021/12/07 02:02:38;;;;;;;25.92;14.47;;;;;;;8.03;100.00;99792.20;1745880;82;21297;-83
2021/12/07 02:05:46;;;;;;;25.35;14.43;;;;;;;8.02;100.00;99785.58;1746697;82;21275;-82
2021/12/07 02:08:51;;;;;;;23.10;13.35;;;;;;;8.00;100.00;99787.13;1745300;82;21203;-82
2021/12/07 02:12:02;;;;;;;23.85;13.08;;;;;;;8.01;100.00;99788.81;1753213;80;21173;-83
2021/12/07 02:15:05;;;;;;;22.10;14.10;;;;;;;8.01;100.00;99785.24;1785728;80;21320;-82
2021/12/07 02:18:11;;;;;;;25.65;14.78;;;;;;;8.01;100.00;99787.97;1785783;80;21737;-83
2021/12/07 02:21:27;;;;;;;23.60;13.38;;;;;;;8.01;100.00;99784.73;1785997;80;21280;-83
2021/12/07 02:24:34;;;;;;;24.80;14.15;;;;;;;8.02;100.00;99785.58;1785892;80;21168;-81
2021/12/07 02:27:39;;;;;;;23.65;12.75;;;;;;;8.02;100.00;99782.34;1785768;80;21726;-84
2021/12/07 02:30:44;;;;;;;20.90;12.03;;;;;;;8.00;100.00;99780.80;1785952;80;21310;-84
2021/12/07 02:33:50;;;;;;;23.05;13.18;;;;;;;8.01;100.00;99774.34;1785835;80;21255;-83
2021/12/07 02:36:55;;;;;;;18.32;11.57;;;;;;;8.02;100.00;99768.72;1785917;80;21659;-83
2021/12/07 02:40:01;;;;;;;17.95;12.25;;;;;;;8.05;100.00;99778.44;1785762;80;21805;-83
2021/12/07 02:43:07;;;;;;;21.10;12.93;;;;;;;8.04;100.00;99780.80;1785839;80;21220;-83
2021/12/07 02:46:13;;;;;;;21.70;13.43;;;;;;;8.05;100.00;99774.34;1769333;80;21260;-83
2021/12/07 02:49:21;;;;;;;21.77;13.45;;;;;;;8.03;100.00;99775.02;1786169;80;21215;-83
2021/12/07 02:52:26;;;;;;;24.32;14.87;;;;;;;7.99;100.00;99774.50;1785903;80;21315;-83
2021/12/07 02:55:32;;;;;;;29.32;15.63;;;;;;;7.94;100.00;99768.20;1785729;80;21276;-82
2021/12/07 02:58:41;;;;;;;23.35;14.30;;;;;;;7.96;100.00;99763.97;1785561;80;21307;-83
2021/12/07 03:01:52;;;;;;;26.90;16.25;;;;;;;7.94;100.00;99764.64;1784286;80;21204;-82
2021/12/07 03:05:05;;;;;;;25.08;15.78;;;;;;;7.91;100.00;99771.30;1785819;80;21841;-83
2021/12/07 03:28:23;;;;;;;23.15;14.38;;;;;;;7.93;100.00;99765.67;1785805;80;21323;-83
2021/12/07 03:31:29;;;;;;;21.70;14.03;;;;;;;7.93;100.00;99769.23;1785876;80;21804;-83
2021/12/07 03:34:35;;;;;;;21.80;13.38;;;;;;;7.94;100.00;99750.51;1785755;80;21276;-82
2021/12/07 03:37:42;;;;;;;24.35;14.73;;;;;;;7.95;100.00;99748.63;1785031;80;21350;-83
2021/12/07 03:40:47;;;;;;;24.60;16.05;;;;;;;7.93;100.00;99752.05;1784311;80;21328;-83
2021/12/07 03:43:53;;;;;;;25.75;14.25;;;;;;;7.91;100.00;99758.20;1785714;80;21220;-81
2021/12/07 03:46:59;;;;;;;25.60;14.33;;;;;;;7.91;100.00;99752.23;1785262;80;21188;-82
2021/12/07 03:50:05;;;;;;;23.95;13.80;;;;;;;7.92;100.00;99763.46;1784807;80;21284;-80
2021/12/07 03:53:12;;;;;;;21.00;12.53;;;;;;;7.94;100.00;99778.25;1784476;80;21761;-82
2021/12/07 03:56:18;;;;;;;19.92;12.15;;;;;;;7.97;100.00;99794.27;1785575;80;21150;-84
2021/12/07 03:59:22;;;;;;;18.02;10.40;;;;;;;7.98;100.00;99790.52;1784123;80;21295;-82
2021/12/07 04:02:28;;;;;;;22.90;13.20;;;;;;;8.02;100.00;99781.48;1784908;80;21298;-82
2021/12/07 04:05:36;;;;;;;25.85;14.70;;;;;;;8.03;100.00;99784.55;1785780;80;21227;-83
2021/12/07 04:08:44;;;;;;;27.87;14.93;;;;;;;8.04;100.00;99784.88;1785810;80;21149;-83
2021/12/07 04:11:50;;;;;;;25.62;15.23;;;;;;;8.03;100.00;99777.73;1785853;80;21738;-83
2021/12/07 04:14:55;;;;;;;27.22;15.30;;;;;;;8.01;100.00;99780.64;1778988;80;21162;-83
2021/12/07 04:18:01;;;;;;;24.35;15.00;;;;;;;7.98;100.00;99778.25;1771746;81;21141;-84
2021/12/07 04:21:07;;;;;;;24.87;15.80;;;;;;;7.94;100.00;99766.84;1771988;81;21272;-83
2021/12/07 04:24:12;;;;;;;27.73;15.75;;;;;;;7.91;100.00;99773.17;1772031;81;21191;-83
2021/12/07 04:27:18;;;;;;;28.12;16.77;;;;;;;7.90;100.00;99765.52;1771337;81;21798;-84
2021/12/07 04:30:34;;;;;;;30.10;17.42;;;;;;;7.90;100.00;99764.16;1771280;81;21244;-83
2021/12/07 04:33:39;;;;;;;26.95;16.30;;;;;;;7.88;100.00;99766.19;1770283;81;21719;-82
2021/12/07 04:36:45;;;;;;;25.15;16.30;;;;;;;7.89;100.00;99755.63;1771609;81;21327;-83
2021/12/07 04:39:50;;;;;;;30.08;17.30;;;;;;;7.90;100.00;99759.20;1771990;81;21335;-83
2021/12/07 04:42:57;;;;;;;32.25;18.98;;;;;;;7.89;100.00;99758.34;1771133;81;21453;-83
2021/12/07 04:59:04;;;;;;;24.77;15.05;;;;;;;8.04;100.00;99789.81;1770732;81;21336;-80
2021/12/07 05:02:11;;;;;;;31.12;18.50;;;;;;;8.11;100.00;99799.01;1771982;81;21679;-81
2021/12/07 05:05:17;;;;;;;34.20;18.87;;;;;;;8.13;100.00;99794.73;1772085;81;21264;-82
2021/12/07 05:08:54;;;;;;;33.85;19.35;;;;;;;8.12;100.00;99790.32;1771966;81;21315;-82
2021/12/07 05:11:48;;;;;;;28.73;18.75;;;;;;;8.10;100.00;99806.84;1771865;81;21336;-83
2021/12/07 05:14:43;;;;;;;28.75;17.15;;;;;;;8.14;100.00;99848.22;1771443;80;21174;-81
2021/12/07 05:18:06;;;;;;;31.80;19.48;;;;;;;8.17;100.00;99828.78;1784823;80;21331;-81
2021/12/07 05:24:23;;;;;;;26.97;16.93;;;;;;;8.22;100.00;99818.22;1785429;80;21260;-82
2021/12/07 05:34:39;;;;;;;28.02;15.85;;;;;;;8.20;100.00;99793.88;1783909;79;21217;-82
2021/12/07 05:40:51;;;;;;;23.75;15.45;;;;;;;8.14;100.00;99789.14;1804261;79;21317;-82
2021/12/07 05:43:56;;;;;;;23.15;13.62;;;;;;;8.11;100.00;99783.18;1801285;79;21287;-82
2021/12/07 05:47:02;;;;;;;21.77;13.90;;;;;;;8.10;100.00;99791.87;1794595;79;21189;-81
2021/12/07 05:50:11;;;;;;;22.52;14.18;;;;;;;8.10;100.00;99789.66;1800104;79;21785;-82
2021/12/07 05:53:17;;;;;;;24.02;15.85;;;;;;;8.09;100.00;99791.53;1792993;79;21876;-83
2021/12/07 05:56:22;;;;;;;26.77;15.45;;;;;;;8.05;100.00;99779.28;1794167;79;21264;-82
2021/12/07 05:59:26;;;;;;;29.95;17.10;;;;;;;8.04;100.00;99778.07;1788444;77;21301;-83
2021/12/07 06:02:31;;;;;;;31.90;17.15;;;;;;;8.03;100.00;99789.99;1793693;77;21295;-82
2021/12/07 06:05:38;;;;;;;28.07;17.48;;;;;;;8.01;100.00;99782.00;1794868;79;21149;-84
2021/12/07 06:08:44;;;;;;;27.90;16.55;;;;;;;8.00;100.00;99772.63;1794564;79;21726;-83
2021/12/07 06:11:50;;;;;;;30.62;18.00;;;;;;;7.96;100.00;99774.02;1792348;79;21726;-83
2021/12/07 06:14:56;;;;;;;28.65;17.27;;;;;;;7.94;100.00;99773.66;1791946;79;21640;-83
2021/12/07 06:18:04;;;;;;;27.05;15.68;;;;;;;7.94;100.00;99773.66;1786965;79;21290;-83
2021/12/07 06:21:28;;;;;;;29.52;17.20;;;;;;;7.93;100.00;99765.16;1790076;79;21219;-84
2021/12/07 06:24:28;;;;;;;30.75;17.20;;;;;;;7.93;100.00;99759.70;1791348;79;21294;-82
2021/12/07 06:27:34;;;;;;;33.18;17.98;;;;;;;7.90;100.00;99763.28;1793421;77;21752;-83
2021/12/07 06:30:39;;;;;;;30.30;17.37;;;;;;;7.91;100.00;99762.28;1786531;79;21295;-81
2021/12/07 06:33:45;;;;;;;31.05;17.37;;;;;;;7.90;100.00;99757.35;1792589;77;21738;-81
2021/12/07 06:36:51;;;;;;;25.85;15.50;;;;;;;7.89;100.00;99758.34;1792286;77;21181;-81
2021/12/07 06:40:01;;;;;;;35.73;17.60;;;;;;;7.91;100.00;99750.88;1794060;77;21236;-82
2021/12/07 06:43:07;;;;;;;36.83;20.85;;;;;;;7.92;100.00;99750.36;1790604;77;21868;-82
2021/12/07 06:46:12;;;;;;;31.27;19.60;;;;;;;7.90;100.00;99750.55;1793225;77;21318;-82
2021/12/07 06:49:29;;;;;;;30.68;18.20;;;;;;;7.89;100.00;99739.28;1791106;77;21181;-82
2021/12/07 06:52:46;;;;;;;30.02;16.77;;;;;;;7.91;100.00;99753.59;1793776;77;21617;-84
2021/12/07 06:55:58;;;;;;;30.35;17.45;;;;;;;7.97;100.00;99757.50;1789301;77;21287;-82
2021/12/07 06:59:09;;;;;;;33.05;18.52;;;;;;;8.02;100.00;99752.89;1781977;77;21435;-83
2021/12/07 07:02:15;;;;;;;35.55;18.87;;;;;;;8.03;100.00;99757.31;1790968;77;21211;-83
2021/12/07 07:05:21;;;;;;;32.38;18.32;;;;;;;8.01;100.00;99745.23;1791061;77;21743;-82
2021/12/07 07:08:27;;;;;;;34.58;18.17;;;;;;;8.02;100.00;99758.34;1792392;77;21188;-82
2021/12/07 07:11:33;;;;;;;32.15;19.00;;;;;;;8.02;100.00;99759.70;1791586;77;21191;-82
2021/12/07 07:14:38;;;;;;;32.05;17.80;;;;;;;8.04;100.00;99754.92;1794685;77;21255;-81
2021/12/07 07:17:44;;;;;;;34.70;21.12;;;;;;;8.07;100.00;99751.86;1790336;77;21289;-82
2021/12/07 07:20:50;;;;;;;37.23;20.27;;;;;;;8.09;100.00;99756.13;1787074;77;21347;-82
2021/12/07 07:23:54;;;;;;;38.05;20.30;;;;;;;8.12;100.00;99756.27;1787657;77;21170;-80
2021/12/07 07:26:59;;;;;;;33.40;20.12;;;;;;;8.15;100.00;99750.48;1789149;77;21796;-78
2021/12/07 07:30:04;;;;;;;33.67;20.45;;;;;;;8.17;100.00;99734.80;1788173;77;21334;-79
2021/12/07 07:33:09;;;;;;;32.50;22.80;;;;;;;8.20;100.00;99731.22;1788883;77;21310;-79
2021/12/07 07:36:15;;;;;;;50.48;36.05;;;;;;;8.23;100.00;99743.63;1790492;77;21353;-79
2021/12/07 07:39:20;;;;;;;50.48;29.25;;;;;;;8.24;100.00;99714.02;1731773;81;21287;-79
2021/12/07 07:42:25;;;;;;;37.00;24.40;;;;;;;8.26;100.00;99728.30;1725981;81;21220;-78
2021/12/07 07:45:39;;;;;;;40.90;25.60;;;;;;;8.27;100.00;99738.17;1727169;81;21190;-78
2021/12/07 07:48:47;;;;;;;50.60;28.90;;;;;;;8.30;100.00;99736.47;1730840;81;21791;-78
2021/12/07 07:51:55;;;;;;;48.13;29.40;;;;;;;8.31;100.00;99734.59;1731031;80;21129;-78
2021/12/07 07:55:00;;;;;;;49.55;27.95;;;;;;;8.32;100.00;99726.75;1741086;80;21602;-79
2021/12/07 07:58:06;;;;;;;51.33;29.20;;;;;;;8.32;100.00;99727.59;1728949;81;21180;-78
2021/12/07 08:01:29;;;;;;;55.43;30.08;;;;;;;8.33;100.00;99725.23;1735295;81;21348;-84
2021/12/07 08:04:24;;;;;;;69.42;37.25;;;;;;;8.34;100.00;99725.55;1729770;81;21897;-82
2021/12/07 08:07:30;;;;;;;56.35;33.00;;;;;;;8.36;100.00;99722.16;1726102;81;21316;-81
2021/12/07 08:10:35;;;;;;;60.00;38.00;;;;;;;8.36;100.00;99703.09;1728287;81;21644;-84
2021/12/07 08:13:43;;;;;;;82.37;48.78;;;;;;;8.41;100.00;99704.77;1730746;81;21221;-83
2021/12/07 08:16:49;;;;;;;153.53;72.70;;;;;;;8.44;100.00;99708.51;1731090;81;21330;-82
2021/12/07 08:19:54;;;;;;;195.55;91.00;;;;;;;8.50;100.00;99700.65;1736474;80;21336;-82
2021/12/07 08:23:04;;;;;;;169.75;77.92;;;;;;;8.51;100.00;99699.61;1738088;80;21165;-82
2021/12/07 08:26:06;;;;;;;138.92;64.30;;;;;;;8.51;100.00;99691.44;1738524;80;21300;-81
2021/12/07 08:29:11;;;;;;;109.87;51.92;;;;;;;8.50;100.00;99683.78;1738833;80;21325;-81
2021/12/07 08:32:18;;;;;;;104.53;52.08;;;;;;;8.52;100.00;99687.70;1735853;80;21373;-84
2021/12/07 08:35:23;;;;;;;106.07;51.77;;;;;;;8.53;100.00;99682.59;1735794;80;21706;-81
2021/12/07 08:38:32;;;;;;;108.05;53.52;;;;;;;8.52;100.00;99684.47;1734481;80;21536;-82
2021/12/07 08:41:39;;;;;;;107.75;49.35;;;;;;;8.52;100.00;99672.20;1738579;80;21794;-83
2021/12/07 08:44:51;;;;;;;98.62;47.75;;;;;;;8.55;100.00;99671.82;1736243;80;21324;-85
2021/12/07 08:48:16;;;;;;;98.07;47.73;;;;;;;8.59;100.00;99674.53;1733289;80;21236;-85
2021/12/07 08:51:45;;;;;;;;;;;;;;;;;;;;;
2021/12/07 09:01:47;;;;;;;69.80;33.20;;;;;;;8.72;100.00;99645.84;1736079;80;21391;-83
2021/12/07 09:04:54;;;;;;;77.42;40.03;;;;;;;8.75;100.00;99642.25;1735161;80;21573;-84
2021/12/07 09:08:00;;;;;;;76.50;37.55;;;;;;;8.77;100.00;99638.81;1736262;80;21315;-82
2021/12/07 09:11:10;;;;;;;72.17;37.95;;;;;;;8.82;100.00;99629.56;1737860;80;21275;-84
2021/12/07 09:14:19;;;;;;;69.20;35.83;;;;;;;8.88;100.00;99627.98;1738980;80;21201;-83
2021/12/07 09:17:26;;;;;;;67.60;34.90;;;;;;;8.94;100.00;99624.55;1734206;80;21354;-84
2021/12/07 09:20:31;;;;;;;69.07;34.08;;;;;;;9.01;100.00;99619.20;1731912;80;21199;-88
2021/12/07 09:23:36;;;;;;;67.72;34.33;;;;;;;9.07;100.00;99613.84;1729003;80;21370;-86
2021/12/07 09:26:42;;;;;;;72.32;37.75;;;;;;;9.14;100.00;99608.00;1732090;80;21236;-84
2021/12/07 09:29:52;;;;;;;74.77;37.70;;;;;;;9.24;100.00;99604.17;1734226;80;21328;-88
2021/12/07 09:33:15;;;;;;;64.87;35.55;;;;;;;9.31;100.00;99610.05;1728580;80;21201;-81
2021/12/07 09:36:23;;;;;;;73.57;35.15;;;;;;;9.35;100.00;99597.73;1727219;80;21216;-82
2021/12/07 09:39:26;;;;;;;87.27;48.55;;;;;;;9.39;100.00;99584.05;1779987;78;22188;-85
2021/12/07 09:42:30;;;;;;;61.65;29.50;;;;;;;9.44;100.00;99578.88;1779220;78;21329;-83
2021/12/07 09:45:37;;;;;;;59.10;29.72;;;;;;;9.48;100.00;99566.55;1778687;78;21319;-83
2021/12/07 09:48:54;;;;;;;69.55;31.82;;;;;;;9.50;100.00;99566.87;1778215;78;21657;-85
2021/12/07 09:52:03;;;;;;;55.52;24.57;;;;;;;9.54;100.00;99569.56;1781537;78;21931;-84
2021/12/07 09:55:11;;;;;;;71.85;44.35;;;;;;;9.58;100.00;99564.06;1782001;78;21613;-82
2021/12/07 09:58:17;;;;;;;55.73;27.20;;;;;;;9.63;100.00;99556.15;1724402;81;21219;-83
2021/12/07 10:01:31;;;;;;;49.90;25.00;;;;;;;9.67;100.00;99556.95;1788923;78;21350;-83
2021/12/07 10:04:38;;;;;;;55.58;28.65;;;;;;;9.71;100.00;99560.16;1777859;78;21307;-83
2021/12/07 10:07:47;;;;;;;45.92;28.23;;;;;;;9.75;100.00;99546.45;1778774;78;21205;-85
2021/12/07 10:11:08;;;;;;;47.13;26.57;;;;;;;9.81;100.00;99536.66;1779980;78;21188;-86
2021/12/07 10:14:17;;;;;;;50.20;29.42;;;;;;;9.87;100.00;99518.13;1726089;81;21307;-86
2021/12/07 10:17:30;;;;;;;42.45;24.05;;;;;;;9.91;100.00;99524.38;1776028;78;21954;-85
2021/12/07 10:20:46;;;;;;;54.35;27.37;;;;;;;9.95;100.00;99520.23;1775455;78;21931;-84
2021/12/07 10:24:07;;;;;;;59.73;26.35;;;;;;;10.01;100.00;99520.50;1791695;77;21299;-83
2021/12/07 10:27:11;;;;;;;57.93;26.30;;;;;;;10.09;100.00;99509.47;1790463;77;21240;-83
2021/12/07 10:30:27;;;;;;;49.15;25.92;;;;;;;10.16;100.00;99518.58;1789165;77;21513;-83
2021/12/07 10:33:49;;;;;;;62.25;28.35;;;;;;;10.23;100.00;99514.05;1792345;77;21342;-87
2021/12/07 10:37:02;;;;;;;96.67;44.20;;;;;;;10.31;100.00;99505.77;1790879;77;21302;-86
2021/12/07 10:40:07;;;;;;;111.90;50.85;;;;;;;10.39;100.00;99511.08;1793469;77;21287;-85
2021/12/07 10:43:15;;;;;;;115.40;52.13;;;;;;;10.47;100.00;99494.56;1789967;77;21310;-85
2021/12/07 10:46:42;;;;;;;103.07;46.02;;;;;;;10.56;100.00;99495.28;1774082;77;21180;-85
2021/12/07 10:50:05;;;;;;;96.40;42.50;;;;;;;10.63;100.00;99489.36;1791568;77;21731;-84
2021/12/07 10:53:10;;;;;;;90.80;39.05;;;;;;;10.72;100.00;99495.52;1790336;77;21250;-84
2021/12/07 10:56:21;;;;;;;96.92;40.33;;;;;;;10.82;100.00;99489.70;1773956;77;21949;-86
2021/12/07 10:59:25;;;;;;;70.37;31.87;;;;;;;10.87;100.00;99475.78;1795120;77;21875;-83
2021/12/07 11:02:33;;;;;;;52.95;25.70;;;;;;;10.91;100.00;99475.68;1794295;77;21299;-85
2021/12/07 11:06:01;;;;;;;56.92;24.07;;;;;;;10.96;100.00;99479.19;1782019;77;21291;-84
2021/12/07 11:09:06;;;;;;;66.82;31.00;;;;;;;10.99;100.00;99467.33;1787652;77;21668;-84
2021/12/07 11:12:28;;;;;;;79.85;32.80;;;;;;;11.04;100.00;99468.63;1788907;77;21184;-82
2021/12/07 11:15:42;;;;;;;88.95;34.00;;;;;;;11.07;100.00;99465.50;1789084;77;21200;-86
2021/12/07 11:18:54;;;;;;;67.67;30.30;;;;;;;11.11;100.00;99465.42;1760831;79;21527;-85
2021/12/07 11:22:00;;;;;;;65.05;27.02;;;;;;;11.15;100.00;99462.58;1787086;79;21246;-86
2021/12/07 11:25:08;;;;;;;52.00;25.65;;;;;;;11.20;100.00;99458.23;1767142;79;22062;-84
2021/12/07 11:32:03;;;;;;;72.60;28.05;;;;;;;11.27;100.00;99460.98;1779931;78;21309;-83
2021/12/07 11:35:37;;;;;;;69.92;29.77;;;;;;;11.29;100.00;99459.41;1777537;79;21388;-84
2021/12/07 11:38:40;;;;;;;86.75;32.88;;;;;;;11.32;100.00;99454.38;1767221;78;21347;-84
2021/12/07 11:41:56;;;;;;;80.25;31.95;;;;;;;11.36;100.00;99452.94;1777219;79;21162;-83
2021/12/07 11:45:19;;;;;;;69.50;31.07;;;;;;;11.40;100.00;99450.64;1778306;79;21256;-84
2021/12/07 11:48:28;;;;;;;89.42;33.75;;;;;;;11.45;100.00;99447.61;1775231;79;21309;-83
2021/12/07 11:51:33;;;;;;;77.53;31.20;;;;;;;11.50;100.00;99439.63;1778707;79;21267;-83
2021/12/07 11:54:46;;;;;;;85.62;34.35;;;;;;;11.52;100.00;99438.89;1778449;78;21312;-84
2021/12/07 11:57:51;;;;;;;84.40;36.83;;;;;;;11.54;100.00;99431.86;1779808;78;21279;-82
2021/12/07 12:01:05;;;;;;;96.50;39.92;;;;;;;11.51;100.00;99428.99;1777795;78;21925;-81
2021/12/07 12:04:08;;;;;;;94.60;39.30;;;;;;;11.50;100.00;99425.94;1777086;78;21252;-82
2021/12/07 12:07:13;;;;;;;107.43;43.90;;;;;;;11.47;100.00;99420.86;1778762;78;21374;-82
2021/12/07 12:10:20;;;;;;;111.22;50.23;;;;;;;11.47;100.00;99432.34;1777493;78;21173;-81
2021/12/07 12:13:56;;;;;;;97.30;42.53;;;;;;;11.47;100.00;99433.71;1777677;78;21810;-81
2021/12/07 12:17:18;;;;;;;77.92;33.25;;;;;;;11.48;100.00;99427.21;1778669;78;21482;-82
2021/12/07 12:20:56;;;;;;;93.75;37.13;;;;;;;11.52;100.00;99427.09;1779030;78;21225;-84
2021/12/07 12:24:21;;;;;;;79.15;34.27;;;;;;;11.55;100.00;99432.17;1780077;78;21846;-84
2021/12/07 12:27:40;;;;;;;94.85;40.35;;;;;;;11.57;100.00;99427.85;1777698;78;21303;-85
2021/12/07 12:30:47;;;;;;;91.30;39.85;;;;;;;11.59;100.00;99424.41;1782672;78;21327;-84
2021/12/07 12:34:04;;;;;;;94.07;37.30;;;;;;;11.62;100.00;99426.71;1781545;78;21318;-85
2021/12/07 12:37:24;;;;;;;84.72;36.65;;;;;;;11.63;100.00;99427.90;1776218;78;21817;-84
2021/12/07 12:40:38;;;;;;;83.35;34.98;;;;;;;11.64;99.62;99426.84;1779464;78;21841;-85
2021/12/07 12:43:54;;;;;;;75.62;29.82;;;;;;;11.62;99.39;99434.93;1781282;78;21275;-83
2021/12/07 12:47:08;;;;;;;70.80;31.62;;;;;;;11.60;99.17;99432.94;1778866;78;21331;-84
2021/12/07 12:50:27;;;;;;;84.83;37.40;;;;;;;11.57;98.97;99434.70;1780133;78;21257;-83
2021/12/07 12:53:37;;;;;;;88.50;36.13;;;;;;;11.48;98.95;99433.53;1773499;78;21169;-82
2021/12/07 12:56:43;;;;;;;79.92;34.83;;;;;;;11.42;99.19;99438.42;1782723;78;21444;-84
2021/12/07 12:59:53;;;;;;;106.15;43.10;;;;;;;11.38;99.46;99440.41;1777296;79;21173;-83
2021/12/07 13:03:01;;;;;;;93.62;39.00;;;;;;;11.31;99.71;99444.48;1772622;79;21197;-84
2021/12/07 13:06:08;;;;;;;87.00;35.52;;;;;;;11.24;100.00;99443.59;1775200;79;21173;-83
2021/12/07 13:09:29;;;;;;;76.00;28.50;;;;;;;11.17;100.00;99439.45;1776598;79;21346;-83
2021/12/07 13:12:43;;;;;;;74.95;25.85;;;;;;;11.11;100.00;99438.06;1773364;79;22008;-85
2021/12/07 13:15:49;;;;;;;57.43;25.92;;;;;;;11.04;100.00;99441.27;1778620;79;21173;-83
2021/12/07 13:18:47;;;;;;;95.40;37.35;;;;;;;10.95;100.00;99444.14;1732994;79;21747;-83
2021/12/07 13:21:45;;;;;;;121.65;47.98;;;;;;;10.87;100.00;99437.48;1777280;79;21335;-81
2021/12/07 13:24:50;;;;;;;117.45;46.20;;;;;;;10.82;100.00;99437.23;1780879;79;21384;-84
2021/12/07 13:28:37;;;;;;;121.85;46.08;;;;;;;10.75;100.00;99434.95;1788884;79;21321;-83
2021/12/07 13:31:56;;;;;;;118.28;45.78;;;;;;;10.67;100.00;99440.56;1796984;79;21345;-83
2021/12/07 13:35:10;;;;;;;118.80;46.08;;;;;;;10.58;100.00;99437.13;1799764;79;21180;-82
2021/12/07 13:38:31;;;;;;;118.05;46.40;;;;;;;10.50;100.00;99437.28;1799368;79;21734;-84
2021/12/07 13:41:36;;;;;;;115.00;47.62;;;;;;;10.41;100.00;99432.47;1796868;79;21330;-82
2021/12/07 13:44:58;;;;;;;96.97;38.13;;;;;;;10.33;100.00;99429.02;1798350;79;21279;-83
2021/12/07 13:48:04;;;;;;;87.35;35.63;;;;;;;10.25;100.00;99429.98;1788786;79;21208;-84
2021/12/07 13:51:08;;;;;;;73.90;30.40;;;;;;;10.18;100.00;99438.11;1799075;79;21295;-84
2021/12/07 13:54:25;;;;;;;86.85;33.30;;;;;;;10.13;100.00;99428.28;1784695;79;21656;-83
2021/12/07 13:57:37;;;;;;;101.53;39.08;;;;;;;10.10;100.00;99426.45;1797438;79;21309;-83
2021/12/07 14:00:43;;;;;;;83.03;33.60;;;;;;;10.04;100.00;99427.23;1784275;80;21167;-84
2021/12/07 14:03:53;;;;;;;73.70;30.02;;;;;;;10.01;100.00;99434.45;1801223;79;21623;-84
2021/12/07 14:06:59;;;;;;;72.30;28.73;;;;;;;9.96;100.00;99442.70;1804974;79;21183;-82
2021/12/07 14:10:11;;;;;;;72.70;27.75;;;;;;;9.91;100.00;99431.51;1732436;82;21217;-82
2021/12/07 14:13:16;;;;;;;65.03;28.30;;;;;;;9.87;100.00;99436.19;1715781;81;21839;-82
2021/12/07 14:16:26;;;;;;;62.23;27.48;;;;;;;9.81;100.00;99429.61;1745247;81;21262;-82
2021/12/07 14:19:31;;;;;;;65.70;26.20;;;;;;;9.77;100.00;99422.00;1735827;81;21842;-82
2021/12/07 14:22:37;;;;;;;47.73;19.48;;;;;;;9.71;100.00;99423.09;1740874;81;21844;-84
2021/12/07 14:25:54;;;;;;;46.68;18.27;;;;;;;9.67;100.00;99419.58;1731632;81;21606;-84
2021/12/07 14:29:04;;;;;;;51.20;20.05;;;;;;;9.63;100.00;99416.38;1732665;82;21160;-83
2021/12/07 14:32:10;;;;;;;44.77;18.98;;;;;;;9.60;100.00;99409.11;1716240;82;21318;-85
2021/12/07 14:35:16;;;;;;;46.85;20.95;;;;;;;9.58;100.00;99416.63;1762795;81;21168;-83
2021/12/07 14:38:21;;;;;;;45.12;19.92;;;;;;;9.54;100.00;99407.97;1779680;79;21142;-84
2021/12/07 14:41:30;;;;;;;42.25;15.85;;;;;;;9.51;100.00;99408.38;1784172;79;21177;-84
2021/12/07 14:44:39;;;;;;;28.10;12.05;;;;;;;9.45;100.00;99409.11;1783939;79;21154;-83
2021/12/07 14:47:44;;;;;;;29.05;11.12;;;;;;;9.36;100.00;99398.84;1782838;79;21708;-82
2021/12/07 14:50:50;;;;;;;19.55;9.55;;;;;;;9.30;100.00;99388.67;1789632;79;21276;-83
2021/12/07 14:53:57;;;;;;;30.37;12.25;;;;;;;9.25;100.00;99391.13;1798210;79;21220;-83
2021/12/07 14:57:03;;;;;;;31.15;13.85;;;;;;;9.19;100.00;99392.74;1770872;81;21613;-83
2021/12/07 15:00:08;;;;;;;32.98;13.93;;;;;;;9.12;100.00;99391.79;1770884;81;21339;-83
2021/12/07 15:03:13;;;;;;;36.38;15.53;;;;;;;9.09;100.00;99380.44;1771323;81;21768;-85
2021/12/07 15:06:20;;;;;;;36.50;15.78;;;;;;;9.06;100.00;99384.89;1771912;81;21268;-84
2021/12/07 15:09:27;;;;;;;24.87;12.18;;;;;;;9.03;100.00;99392.92;1771244;80;21212;-83
2021/12/07 15:12:32;;;;;;;24.15;11.33;;;;;;;9.02;100.00;99402.67;1771030;81;21828;-82
2021/12/07 15:15:36;;;;;;;29.27;11.95;;;;;;;8.98;100.00;99402.19;1771794;81;21277;-84
2021/12/07 15:18:44;;;;;;;25.10;11.53;;;;;;;8.96;100.00;99405.12;1770239;81;21190;-83
2021/12/07 15:21:49;;;;;;;31.48;12.40;;;;;;;8.95;100.00;99408.05;1771927;81;21719;-84
2021/12/07 15:24:55;;;;;;;29.60;12.63;;;;;;;8.93;100.00;99419.64;1771736;81;21178;-83
2021/12/07 15:28:00;;;;;;;30.25;12.25;;;;;;;8.90;100.00;99423.60;1763557;80;21292;-84
2021/12/07 15:31:06;;;;;;;48.10;16.05;;;;;;;8.90;100.00;99418.15;1780010;80;21271;-84
2021/12/07 15:34:14;;;;;;;37.03;16.25;;;;;;;8.84;100.00;99407.97;1738161;80;21130;-83
2021/12/07 15:37:22;;;;;;;36.95;15.03;;;;;;;8.76;100.00;99418.98;1780092;80;21295;-84
2021/12/07 15:40:29;;;;;;;39.50;15.95;;;;;;;8.69;100.00;99417.50;1780145;80;21291;-83
2021/12/07 15:43:34;;;;;;;41.42;16.80;;;;;;;8.63;100.00;99422.86;1780177;80;21323;-84
2021/12/07 15:46:39;;;;;;;41.50;16.17;;;;;;;8.60;100.00;99436.85;1780058;80;21339;-84
2021/12/07 15:49:48;;;;;;;32.03;16.48;;;;;;;8.59;100.00;99424.26;1780257;80;21638;-84
2021/12/07 15:53:02;;;;;;;35.90;13.80;;;;;;;8.56;100.00;99427.34;1780376;80;21216;-85
2021/12/07 15:56:07;;;;;;;35.40;14.68;;;;;;;8.51;100.00;99425.69;1780116;80;21189;-82
2021/12/07 15:59:22;;;;;;;36.30;14.30;;;;;;;8.44;100.00;99410.61;1780269;80;21806;-83
2021/12/07 16:02:29;;;;;;;28.57;13.10;;;;;;;8.37;100.00;99405.02;1780004;80;21193;-84
2021/12/07 16:05:33;;;;;;;31.15;13.88;;;;;;;8.29;100.00;99417.35;1779980;80;21272;-83